createdAt,value
2019-02-06T00:01:21.608Z,91.70
2019-02-06T00:03:50.984Z,91.70
2019-02-06T00:06:20.593Z,91.70
2019-02-06T00:08:50.302Z,91.70
2019-02-06T00:11:19.645Z,91.70
2019-02-06T00:13:49.362Z,91.60
2019-02-06T00:16:19.693Z,91.80
2019-02-06T00:18:49.378Z,91.70
2019-02-06T00:21:20.613Z,91.70
2019-02-06T00:23:49.638Z,91.60
2019-02-06T00:26:18.986Z,91.60
2019-02-06T00:28:48.281Z,91.70
2019-02-06T00:31:17.622Z,91.60
2019-02-06T00:33:46.935Z,91.70
2019-02-06T00:36:16.719Z,91.80
2019-02-06T00:38:46.025Z,91.90
2019-02-06T00:41:15.369Z,91.90
2019-02-06T00:43:44.672Z,91.80
2019-02-06T00:46:14.022Z,91.80
2019-02-06T00:48:43.392Z,91.90
2019-02-06T00:51:13.705Z,91.90
2019-02-06T00:53:43.002Z,91.90
2019-02-06T00:56:12.350Z,91.90
2019-02-06T00:58:41.652Z,91.90
2019-02-06T01:01:11.002Z,91.80
2019-02-06T01:03:40.305Z,91.90
2019-02-06T01:06:09.651Z,91.80
2019-02-06T01:08:38.949Z,91.80
2019-02-06T01:11:08.296Z,91.70
2019-02-06T01:13:37.607Z,91.60
2019-02-06T01:16:06.947Z,91.60
2019-02-06T01:18:36.426Z,91.60
2019-02-06T01:21:06.733Z,91.60
2019-02-06T01:23:36.042Z,91.60
2019-02-06T01:26:05.589Z,91.70
2019-02-06T01:28:34.888Z,91.70
2019-02-06T01:31:04.706Z,91.70
2019-02-06T01:33:34.031Z,91.70
2019-02-06T01:36:03.371Z,91.70
2019-02-06T01:38:32.674Z,91.70
2019-02-06T01:41:02.428Z,91.80
2019-02-06T01:43:31.761Z,91.90
2019-02-06T01:46:01.109Z,91.80
2019-02-06T01:48:30.553Z,91.70
2019-02-06T01:50:59.857Z,91.80
2019-02-06T01:53:29.272Z,91.80
2019-02-06T01:55:59.109Z,91.80
2019-02-06T01:58:28.454Z,91.90
2019-02-06T02:00:57.775Z,92.00
2019-02-06T02:03:27.116Z,92.10
2019-02-06T02:06:02.271Z,92.00
2019-02-06T02:08:27.736Z,92.00
2019-02-06T02:10:57.034Z,92.10
2019-02-06T02:13:26.378Z,92.10
2019-02-06T02:15:55.681Z,92.10
2019-02-06T02:18:25.034Z,92.10
2019-02-06T02:20:54.409Z,92.10
2019-02-06T02:23:23.816Z,92.10
2019-02-06T02:25:53.167Z,92.20
2019-02-06T02:28:22.450Z,92.10
2019-02-06T02:30:52.617Z,92.10
2019-02-06T02:33:21.959Z,92.10
2019-02-06T02:35:51.256Z,92.20
2019-02-06T02:38:20.784Z,92.10
2019-02-06T02:40:50.331Z,92.00
2019-02-06T02:43:19.811Z,91.90
2019-02-06T02:45:50.150Z,92.00
2019-02-06T02:48:19.497Z,92.10
2019-02-06T02:50:48.794Z,92.10
2019-02-06T02:53:18.138Z,92.10
2019-02-06T02:55:47.561Z,92.10
2019-02-06T02:58:16.883Z,92.10
2019-02-06T03:00:47.827Z,92.00
2019-02-06T03:03:27.596Z,92.10
2019-02-06T03:05:56.894Z,92.20
2019-02-06T03:08:26.634Z,92.10
2019-02-06T03:10:55.934Z,92.40
2019-02-06T03:13:25.272Z,92.10
2019-02-06T03:15:54.586Z,92.10
2019-02-06T03:18:23.927Z,92.10
2019-02-06T03:20:53.225Z,92.10
2019-02-06T03:23:22.570Z,92.00
2019-02-06T03:25:51.882Z,92.10
2019-02-06T03:28:21.489Z,92.10
2019-02-06T03:30:50.806Z,92.00
2019-02-06T03:33:20.140Z,92.10
2019-02-06T03:35:49.516Z,92.10
2019-02-06T03:38:18.856Z,92.00
2019-02-06T03:40:48.152Z,92.10
2019-02-06T03:43:17.504Z,92.00
2019-02-06T03:45:46.802Z,92.10
2019-02-06T03:48:16.142Z,92.10
2019-02-06T03:50:45.445Z,92.20
2019-02-06T03:53:14.801Z,92.20
2019-02-06T03:55:44.117Z,92.20
2019-02-06T03:58:13.449Z,92.20
2019-02-06T04:00:42.786Z,92.20
2019-02-06T04:03:12.125Z,92.30
2019-02-06T04:05:41.460Z,92.30
2019-02-06T04:08:10.761Z,92.60
2019-02-06T04:10:40.309Z,92.30
2019-02-06T04:13:09.622Z,92.20
2019-02-06T04:15:38.957Z,92.20
2019-02-06T04:18:08.262Z,92.00
2019-02-06T04:20:37.605Z,92.00
2019-02-06T04:23:06.951Z,91.90
2019-02-06T04:25:36.588Z,92.00
2019-02-06T04:28:05.893Z,92.00
2019-02-06T04:30:35.240Z,92.00
2019-02-06T04:33:04.584Z,92.00
2019-02-06T04:35:33.922Z,92.10
2019-02-06T04:38:03.226Z,92.10
2019-02-06T04:40:32.870Z,92.20
2019-02-06T04:43:02.169Z,92.30
2019-02-06T04:45:31.518Z,92.20
2019-02-06T04:48:00.817Z,92.00
2019-02-06T04:50:30.153Z,92.10
2019-02-06T04:52:59.500Z,92.10
2019-02-06T04:55:29.145Z,92.00
2019-02-06T04:57:58.449Z,91.90
2019-02-06T05:00:28.258Z,91.90
2019-02-06T05:02:57.559Z,92.00
2019-02-06T05:05:26.901Z,92.00
2019-02-06T05:07:56.213Z,92.00
2019-02-06T05:10:26.925Z,92.00
2019-02-06T05:12:56.227Z,92.10
2019-02-06T05:15:25.569Z,92.30
2019-02-06T05:17:55.933Z,92.20
2019-02-06T05:20:28.699Z,92.00
2019-02-06T05:22:57.992Z,92.00
2019-02-06T05:25:27.735Z,91.90
2019-02-06T05:27:57.031Z,92.10
2019-02-06T05:30:26.374Z,92.10
2019-02-06T05:32:55.745Z,92.20
2019-02-06T05:35:25.080Z,92.10
2019-02-06T05:37:54.421Z,92.20
2019-02-06T05:40:24.073Z,92.30
2019-02-06T05:42:53.382Z,92.20
2019-02-06T05:45:22.720Z,92.30
2019-02-06T05:47:52.023Z,92.50
2019-02-06T05:50:21.381Z,92.40
2019-02-06T05:52:50.670Z,92.80
2019-02-06T05:55:20.032Z,92.60
2019-02-06T05:57:49.690Z,92.50
2019-02-06T06:00:25.372Z,92.50
2019-02-06T06:02:54.669Z,92.50
2019-02-06T06:05:24.017Z,92.50
2019-02-06T06:07:53.331Z,92.70
2019-02-06T06:10:22.682Z,92.70
2019-02-06T06:12:51.982Z,92.70
2019-02-06T06:15:21.402Z,92.70
2019-02-06T06:17:50.689Z,92.70
2019-02-06T06:20:20.442Z,92.70
2019-02-06T06:22:49.816Z,92.60
2019-02-06T06:25:20.123Z,92.60
2019-02-06T06:27:49.839Z,92.60
2019-02-06T06:30:20.400Z,92.50
2019-02-06T06:32:49.702Z,92.50
2019-02-06T06:35:19.044Z,92.30
2019-02-06T06:37:57.628Z,92.20
2019-02-06T06:40:23.563Z,92.10
2019-02-06T06:42:52.865Z,92.10
2019-02-06T06:45:25.357Z,92.10
2019-02-06T06:47:54.667Z,92.10
2019-02-06T06:50:25.054Z,92.00
2019-02-06T06:52:54.393Z,92.00
2019-02-06T06:55:24.001Z,91.90
2019-02-06T06:57:53.343Z,91.80
2019-02-06T07:00:24.781Z,91.60
2019-02-06T07:02:54.123Z,91.50
2019-02-06T07:05:23.430Z,91.50
2019-02-06T07:07:53.308Z,91.40
2019-02-06T07:10:22.908Z,91.40
2019-02-06T07:12:52.260Z,91.40
2019-02-06T07:15:24.812Z,91.40
2019-02-06T07:17:54.231Z,91.30
2019-02-06T07:20:23.528Z,91.10
2019-02-06T07:22:52.868Z,91.20
2019-02-06T07:25:22.472Z,91.10
2019-02-06T07:27:51.821Z,91.00
2019-02-06T07:30:34.710Z,90.80
2019-02-06T07:33:04.138Z,90.70
2019-02-06T07:35:33.644Z,90.50
2019-02-06T07:38:03.033Z,90.60
2019-02-06T07:40:32.345Z,90.50
2019-02-06T07:43:01.703Z,90.50
2019-02-06T07:45:31.000Z,90.40
2019-02-06T07:48:00.345Z,90.40
2019-02-06T07:50:31.594Z,90.30
2019-02-06T07:53:01.037Z,89.70
2019-02-06T07:55:30.349Z,89.20
2019-02-06T07:57:59.688Z,88.40
2019-02-06T08:00:29.003Z,87.70
2019-02-06T08:02:58.973Z,87.00
2019-02-06T08:05:28.276Z,86.60
2019-02-06T08:07:57.984Z,85.90
2019-02-06T08:10:32.541Z,86.00
2019-02-06T08:13:01.953Z,86.10
2019-02-06T08:15:31.320Z,85.10
2019-02-06T08:18:00.665Z,85.40
2019-02-06T08:20:30.139Z,85.20
2019-02-06T08:22:59.484Z,85.00
2019-02-06T08:25:28.785Z,83.70
2019-02-06T08:27:58.138Z,83.80
2019-02-06T08:30:29.694Z,83.50
2019-02-06T08:32:59.106Z,83.40
2019-02-06T08:35:28.415Z,83.70
2019-02-06T08:37:57.766Z,83.00
2019-02-06T08:40:31.025Z,82.80
2019-02-06T08:43:00.369Z,82.40
2019-02-06T08:45:30.744Z,80.90
2019-02-06T08:48:00.094Z,80.80
2019-02-06T08:50:29.697Z,81.40
2019-02-06T08:52:59.045Z,80.00
2019-02-06T08:55:30.942Z,79.30
2019-02-06T08:58:00.459Z,77.50
2019-02-06T09:03:00.468Z,72.00
2019-02-06T09:05:29.973Z,69.90
2019-02-06T09:07:59.330Z,75.00
2019-02-06T09:10:30.068Z,65.50
2019-02-06T09:13:00.152Z,61.50
2019-02-06T09:15:29.467Z,59.70
2019-02-06T09:17:58.820Z,54.70
2019-02-06T09:20:29.156Z,55.50
2019-02-06T09:22:58.664Z,53.40
2019-02-06T09:25:29.116Z,61.60
2019-02-06T09:27:59.449Z,54.70
2019-02-06T09:30:33.784Z,53.00
2019-02-06T09:33:03.546Z,53.50
2019-02-06T09:35:32.845Z,53.30
2019-02-06T09:38:02.193Z,51.80
2019-02-06T09:40:31.874Z,49.20
2019-02-06T09:43:01.216Z,49.20
2019-02-06T09:45:30.520Z,46.60
2019-02-06T09:47:59.873Z,45.50
2019-02-06T09:50:31.511Z,44.10
2019-02-06T09:53:00.925Z,43.10
2019-02-06T09:55:30.257Z,42.70
2019-02-06T09:57:59.629Z,42.10
2019-02-06T10:00:31.286Z,42.20
2019-02-06T10:03:01.835Z,41.00
2019-02-06T10:05:31.169Z,39.80
2019-02-06T10:08:00.528Z,38.90
2019-02-06T10:10:30.020Z,39.00
2019-02-06T10:13:01.742Z,38.10
2019-02-06T10:15:35.157Z,38.70
2019-02-06T10:18:05.617Z,39.70
2019-02-06T10:20:40.465Z,43.70
2019-02-06T10:23:09.781Z,45.00
2019-02-06T10:25:39.159Z,45.70
2019-02-06T10:28:08.467Z,45.90
2019-02-06T10:30:40.358Z,45.00
2019-02-06T10:33:10.716Z,44.40
2019-02-06T10:35:40.073Z,43.30
2019-02-06T10:38:09.564Z,43.30
2019-02-06T10:40:38.976Z,42.20
2019-02-06T10:43:09.439Z,43.50
2019-02-06T10:45:39.130Z,44.80
2019-02-06T10:48:08.434Z,42.00
2019-02-06T10:53:08.118Z,47.10
2019-02-06T10:55:37.505Z,40.10
2019-02-06T10:58:06.810Z,42.70
2019-02-06T11:00:50.767Z,43.40
2019-02-06T11:05:49.277Z,43.00
2019-02-06T11:08:18.588Z,45.00
2019-02-06T11:10:47.934Z,50.00
2019-02-06T11:13:17.536Z,51.90
2019-02-06T11:15:46.887Z,50.20
2019-02-06T11:18:16.198Z,46.60
2019-02-06T11:20:45.545Z,43.30
2019-02-06T11:23:14.857Z,40.10
2019-02-06T11:25:44.207Z,39.00
2019-02-06T11:28:14.665Z,39.70
2019-02-06T11:30:44.016Z,40.10
2019-02-06T11:33:13.335Z,37.20
2019-02-06T11:35:42.749Z,37.20
2019-02-06T11:38:12.142Z,37.10
2019-02-06T11:40:41.490Z,37.70
2019-02-06T11:43:11.236Z,37.30
2019-02-06T11:45:40.593Z,38.80
2019-02-06T11:48:09.909Z,40.90
2019-02-06T11:50:42.825Z,44.60
2019-02-06T11:53:14.475Z,46.40
2019-02-06T11:55:43.828Z,48.10
2019-02-06T11:58:13.349Z,47.60
2019-02-06T12:00:49.858Z,46.00
2019-02-06T12:03:22.039Z,42.70
2019-02-06T12:05:50.187Z,43.50
2019-02-06T12:08:19.517Z,46.00
2019-02-06T12:10:49.250Z,43.80
2019-02-06T12:13:18.579Z,42.50
2019-02-06T12:15:47.949Z,43.00
2019-02-06T12:18:17.360Z,43.60
2019-02-06T12:20:46.705Z,43.70
2019-02-06T12:23:16.008Z,43.40
2019-02-06T12:25:45.765Z,40.90
2019-02-06T12:28:15.154Z,41.30
2019-02-06T12:30:44.524Z,42.50
2019-02-06T12:33:13.981Z,43.20
2019-02-06T12:35:43.349Z,45.60
2019-02-06T12:38:12.685Z,52.00
2019-02-06T12:40:42.081Z,41.30
2019-02-06T12:43:11.404Z,41.70
2019-02-06T12:45:40.765Z,42.70
2019-02-06T12:48:10.077Z,47.10
2019-02-06T12:50:39.441Z,40.90
2019-02-06T12:53:09.824Z,41.50
2019-02-06T12:55:40.417Z,42.90
2019-02-06T12:58:09.766Z,43.70
2019-02-06T13:00:41.736Z,46.00
2019-02-06T13:03:11.071Z,48.40
2019-02-06T13:05:40.412Z,52.20
2019-02-06T13:08:09.761Z,55.10
2019-02-06T13:13:08.112Z,58.80
2019-02-06T13:15:37.611Z,60.50
2019-02-06T13:18:06.960Z,61.20
2019-02-06T13:20:36.625Z,60.90
2019-02-06T13:23:06.241Z,74.30
2019-02-06T13:25:35.545Z,68.40
2019-02-06T13:28:05.034Z,72.50
2019-02-06T13:30:36.903Z,62.80
2019-02-06T13:33:07.586Z,61.80
2019-02-06T13:35:37.326Z,62.00
2019-02-06T13:38:06.666Z,67.40
2019-02-06T13:40:45.061Z,71.80
2019-02-06T13:43:07.004Z,65.10
2019-02-06T13:45:39.481Z,68.90
2019-02-06T13:50:37.805Z,69.90
2019-02-06T13:53:07.155Z,59.00
2019-02-06T13:55:37.531Z,59.80
2019-02-06T13:58:07.286Z,68.70
2019-02-06T14:00:39.393Z,63.80
2019-02-06T14:03:08.749Z,64.40
2019-02-06T14:05:38.125Z,65.00
2019-02-06T14:08:13.017Z,64.60
2019-02-06T14:10:42.328Z,57.80
2019-02-06T14:13:11.733Z,53.80
2019-02-06T14:15:45.993Z,51.70
2019-02-06T14:18:15.425Z,49.50
2019-02-06T14:20:45.576Z,48.90
2019-02-06T14:23:20.865Z,49.50
2019-02-06T14:26:05.128Z,50.30
2019-02-06T14:28:54.329Z,50.20
2019-02-06T14:31:45.001Z,49.60
2019-02-06T14:34:35.427Z,49.60
2019-02-06T14:37:19.721Z,51.00
2019-02-06T14:40:20.583Z,53.30
2019-02-06T14:43:08.127Z,56.00
2019-02-06T14:45:55.718Z,58.20
2019-02-06T14:48:28.386Z,59.60
2019-02-06T14:51:06.629Z,62.10
2019-02-06T14:53:39.481Z,63.80
2019-02-06T14:56:28.451Z,65.50
2019-02-06T14:59:27.313Z,66.10
2019-02-06T15:02:16.213Z,67.10
2019-02-06T15:05:08.336Z,68.50
2019-02-06T15:08:07.570Z,69.10
2019-02-06T15:10:40.185Z,69.70
2019-02-06T15:13:18.520Z,70.60
2019-02-06T15:16:13.353Z,71.00
2019-02-06T15:19:03.534Z,71.70
2019-02-06T15:21:52.373Z,72.10
2019-02-06T15:24:36.808Z,72.10
2019-02-06T15:27:21.263Z,72.20
2019-02-06T15:29:54.154Z,72.80
2019-02-06T15:32:41.468Z,73.70
2019-02-06T15:35:21.668Z,74.10
2019-02-06T15:38:00.578Z,74.80
2019-02-06T15:40:47.778Z,75.70
2019-02-06T15:43:32.139Z,76.10
2019-02-06T15:46:21.029Z,76.70
2019-02-06T15:49:05.373Z,77.20
2019-02-06T15:51:52.696Z,77.70
2019-02-06T15:54:38.820Z,78.50
2019-02-06T15:57:19.696Z,78.80
2019-02-06T16:00:00.940Z,85.20
2019-02-06T16:02:59.029Z,79.60
2019-02-06T16:05:52.455Z,80.00
2019-02-06T16:08:34.012Z,80.30
2019-02-06T16:11:26.804Z,80.80
2019-02-06T16:14:08.361Z,81.00
2019-02-06T16:17:01.591Z,81.20
2019-02-06T16:19:46.449Z,81.10
2019-02-06T16:22:44.079Z,81.30
2019-02-06T16:25:22.510Z,81.30
2019-02-06T16:27:57.849Z,81.00
2019-02-06T16:30:42.440Z,80.80
2019-02-06T16:33:17.773Z,80.50
2019-02-06T16:35:59.177Z,79.90
2019-02-06T16:38:46.633Z,80.00
2019-02-06T16:41:41.437Z,80.00
2019-02-06T16:44:13.994Z,79.70
2019-02-06T16:46:58.780Z,80.00
2019-02-06T16:49:40.079Z,79.80
2019-02-06T16:52:21.738Z,80.00
2019-02-06T16:55:08.952Z,80.30
2019-02-06T16:57:57.721Z,80.60
2019-02-06T17:00:37.581Z,80.70
2019-02-06T17:03:26.672Z,81.10
2019-02-06T17:06:07.889Z,81.00
2019-02-06T17:09:01.488Z,81.10
2019-02-06T17:11:38.165Z,81.10
2019-02-06T17:14:10.764Z,81.60
2019-02-06T17:16:43.323Z,81.90
2019-02-06T17:19:33.577Z,81.60
2019-02-06T17:22:21.073Z,81.60
2019-02-06T17:24:56.642Z,81.90
2019-02-06T17:27:31.973Z,82.20
2019-02-06T17:30:22.069Z,82.30
2019-02-06T17:33:06.409Z,82.60
2019-02-06T17:36:01.160Z,82.90
2019-02-06T17:38:36.697Z,83.00
2019-02-06T17:41:27.211Z,83.00
2019-02-06T17:44:08.792Z,83.10
2019-02-06T17:46:50.374Z,83.30
2019-02-06T17:49:29.656Z,83.00
2019-02-06T17:52:11.593Z,82.90
2019-02-06T17:54:44.148Z,83.10
2019-02-06T17:57:13.496Z,82.90
2019-02-06T17:59:42.878Z,83.00
2019-02-06T18:02:12.212Z,83.30
2019-02-06T18:04:41.616Z,83.40
2019-02-06T18:07:11.935Z,83.50
2019-02-06T18:09:41.233Z,83.30
2019-02-06T18:12:10.575Z,82.90
2019-02-06T18:14:39.876Z,83.00
2019-02-06T18:17:10.300Z,83.00
2019-02-06T18:19:39.602Z,82.60
2019-02-06T18:22:08.944Z,82.80
2019-02-06T18:24:38.240Z,82.40
2019-02-06T18:27:07.584Z,82.20
2019-02-06T18:29:36.881Z,82.80
2019-02-06T18:32:06.241Z,81.90
2019-02-06T18:34:35.649Z,81.90
2019-02-06T18:37:04.985Z,82.00
2019-02-06T18:39:34.336Z,81.90
2019-02-06T18:42:03.678Z,82.10
2019-02-06T18:44:33.029Z,81.80
2019-02-06T18:47:02.333Z,81.60
2019-02-06T18:49:31.753Z,81.60
2019-02-06T18:52:01.059Z,81.80
2019-02-06T18:54:30.397Z,90.40
2019-02-06T18:56:59.700Z,81.50
2019-02-06T18:59:29.471Z,81.20
2019-02-06T19:01:58.772Z,81.10
2019-02-06T19:04:28.193Z,81.20
2019-02-06T19:06:57.546Z,80.90
2019-02-06T19:09:28.955Z,81.10
2019-02-06T19:11:58.545Z,80.90
2019-02-06T19:14:27.989Z,81.00
2019-02-06T19:16:57.284Z,80.70
2019-02-06T19:19:26.828Z,80.80
2019-02-06T19:21:56.206Z,81.40
2019-02-06T19:24:25.562Z,80.70
2019-02-06T19:26:54.873Z,80.70
2019-02-06T19:29:25.059Z,80.80
2019-02-06T19:31:54.411Z,80.90
2019-02-06T19:34:23.757Z,80.90
2019-02-06T19:36:53.068Z,80.80
2019-02-06T19:39:22.420Z,80.40
2019-02-06T19:41:51.726Z,80.60
2019-02-06T19:44:21.144Z,80.70
2019-02-06T19:46:50.670Z,80.70
2019-02-06T19:49:19.993Z,80.40
2019-02-06T19:51:49.308Z,80.40
2019-02-06T19:54:18.652Z,80.60
2019-02-06T19:56:47.953Z,80.70
2019-02-06T19:59:17.289Z,80.60
2019-02-06T20:01:46.610Z,80.60
2019-02-06T20:04:16.551Z,80.40
2019-02-06T20:06:45.868Z,80.50
2019-02-06T20:09:15.272Z,80.40
2019-02-06T20:11:44.650Z,80.80
2019-02-06T20:14:13.992Z,80.70
2019-02-06T20:16:43.292Z,80.70
2019-02-06T20:19:13.856Z,80.40
2019-02-06T20:21:43.768Z,80.50
2019-02-06T20:24:13.150Z,80.70
2019-02-06T20:26:42.423Z,80.70
2019-02-06T20:29:11.781Z,80.40
2019-02-06T20:31:41.081Z,80.50
2019-02-06T20:34:10.497Z,80.70
2019-02-06T20:36:39.828Z,80.90
2019-02-06T20:39:09.190Z,80.90
2019-02-06T20:41:39.694Z,80.90
2019-02-06T20:44:09.044Z,81.10
2019-02-06T20:46:38.356Z,81.20
2019-02-06T20:49:08.080Z,81.30
2019-02-06T20:51:37.374Z,81.30
2019-02-06T20:54:06.733Z,81.20
2019-02-06T20:56:36.149Z,81.20
2019-02-06T20:59:05.928Z,81.50
2019-02-06T21:01:35.456Z,81.60
2019-02-06T21:04:06.460Z,81.40
2019-02-06T21:06:37.437Z,81.60
2019-02-06T21:09:09.836Z,81.50
2019-02-06T21:11:39.353Z,81.80
2019-02-06T21:14:08.654Z,81.90
2019-02-06T21:16:38.008Z,82.10
2019-02-06T21:19:07.324Z,81.90
2019-02-06T21:21:36.672Z,81.80
2019-02-06T21:24:05.985Z,82.10
2019-02-06T21:26:35.337Z,82.20
2019-02-06T21:29:04.641Z,82.40
2019-02-06T21:31:34.068Z,82.30
2019-02-06T21:34:05.824Z,82.40
2019-02-06T21:36:34.346Z,82.60
2019-02-06T21:39:05.318Z,82.70
2019-02-06T21:41:36.296Z,82.70
2019-02-06T21:44:05.640Z,82.70
2019-02-06T21:46:34.985Z,82.80
2019-02-06T21:49:04.293Z,83.00
2019-02-06T21:51:33.644Z,83.00
2019-02-06T21:54:03.283Z,83.10
2019-02-06T21:56:32.661Z,83.30
2019-02-06T21:59:01.968Z,83.50
2019-02-06T22:01:31.393Z,83.50
2019-02-06T22:04:00.711Z,83.70
2019-02-06T22:06:30.053Z,83.80
2019-02-06T22:08:59.565Z,84.00
2019-02-06T22:11:28.912Z,84.00
2019-02-06T22:13:58.550Z,84.00
2019-02-06T22:16:27.918Z,84.10
2019-02-06T22:18:57.229Z,84.30
2019-02-06T22:21:26.581Z,84.20
2019-02-06T22:23:56.097Z,84.20
2019-02-06T22:26:25.450Z,84.20
2019-02-06T22:28:54.753Z,84.30
2019-02-06T22:31:24.105Z,84.40
2019-02-06T22:33:53.417Z,84.50
2019-02-06T22:36:22.760Z,84.50
2019-02-06T22:38:52.549Z,84.50
2019-02-06T22:41:21.896Z,84.50
2019-02-06T22:43:51.206Z,84.50
2019-02-06T22:46:20.549Z,84.60
2019-02-06T22:48:49.857Z,84.50
2019-02-06T22:51:19.211Z,84.40
2019-02-06T22:53:48.713Z,84.40
2019-02-06T22:56:18.060Z,84.40
2019-02-06T22:58:47.373Z,84.40
2019-02-06T23:01:19.994Z,84.30
2019-02-06T23:03:49.372Z,84.30
2019-02-06T23:06:18.713Z,84.30
2019-02-06T23:08:48.050Z,84.30
2019-02-06T23:11:17.352Z,84.30
2019-02-06T23:13:46.711Z,84.30
2019-02-06T23:16:16.020Z,84.20
2019-02-06T23:18:46.345Z,84.20
2019-02-06T23:21:16.628Z,84.10
2019-02-06T23:23:45.973Z,84.00
2019-02-06T23:26:15.276Z,83.80
2019-02-06T23:28:44.620Z,84.00
2019-02-06T23:31:14.016Z,83.90
2019-02-06T23:33:43.614Z,83.90
2019-02-06T23:36:14.192Z,83.90
2019-02-06T23:38:43.545Z,83.90
2019-02-06T23:41:12.850Z,84.10
2019-02-06T23:43:42.207Z,84.00
2019-02-06T23:46:11.501Z,83.90
2019-02-06T23:48:40.840Z,83.90
2019-02-06T23:51:10.515Z,83.90
2019-02-06T23:53:39.861Z,83.90
2019-02-06T23:56:09.169Z,84.00
2019-02-06T23:58:38.522Z,83.80
